Time;durP1;ratioP1;P1;durP2;ratioP2;P2;SDS_P1;SDS_P2;PMS_P1;PMS_P2;Temp;Humidity;BMP_temperature;BMP_pressure;BME280_temperature;BME280_humidity;BME280_pressure;Samples;Min_cycle;Max_cycle;Signal;HPM_P1;HPM_P2
2022/01/25 00:27:07;;;;;;;17.33;8.88;;;;;;;;;;4917252;29;20107;-73
2022/01/25 00:29:54;;;;;;;14.60;8.60;;;;;;;;;;4916856;29;20502;-73
2022/01/25 00:32:20;;;;;;;16.15;8.55;;;;;;;;;;4908214;29;20418;-75
2022/01/25 00:34:48;;;;;;;14.98;8.15;;;;;;;;;;4916849;29;20107;-74
2022/01/25 00:37:13;;;;;;;17.92;8.90;;;;;;;;;;4917440;29;20020;-73
2022/01/25 00:39:40;;;;;;;16.08;8.98;;;;;;;;;;4913800;29;20141;-75
2022/01/25 00:42:06;;;;;;;17.48;9.10;;;;;;;;;;4905047;29;20020;-73
2022/01/25 00:44:36;;;;;;;18.02;9.25;;;;;;;;;;4916887;29;20020;-73
2022/01/25 00:47:02;;;;;;;16.17;9.18;;;;;;;;;;4903336;29;20489;-73
2022/01/25 00:49:29;;;;;;;14.45;7.85;;;;;;;;;;4917997;29;20095;-74
2022/01/25 00:56:49;;;;;;;15.18;8.57;;;;;;;;;;4920118;29;20028;-74
2022/01/25 00:59:16;;;;;;;14.55;8.27;;;;;;;;;;4922453;29;20016;-73
2022/01/25 01:01:41;;;;;;;14.77;8.43;;;;;;;;;;4919353;29;20024;-74
2022/01/25 01:04:07;;;;;;;13.93;7.80;;;;;;;;;;4908495;29;20590;-74
2022/01/25 01:06:33;;;;;;;15.38;9.07;;;;;;;;;;4921565;29;20020;-74
2022/01/25 01:08:58;;;;;;;13.20;7.35;;;;;;;;;;4919612;29;20107;-75
2022/01/25 01:11:35;;;;;;;14.60;7.93;;;;;;;;;;4921629;29;20027;-74
2022/01/25 01:17:17;;;;;;;14.77;8.48;;;;;;;;;;4918939;29;20044;-70
2022/01/25 01:30:46;;;;;;;15.35;8.85;;;;;;;;;;4917884;29;20568;-75
2022/01/25 01:36:30;;;;;;;16.50;9.60;;;;;;;;;;4915971;29;20051;-73
2022/01/25 01:41:50;;;;;;;16.50;9.02;;;;;;;;;;4918961;29;20026;-74
2022/01/25 01:44:19;;;;;;;16.40;8.98;;;;;;;;;;4917776;29;20111;-74
2022/01/25 01:47:00;;;;;;;16.77;8.25;;;;;;;;;;4916715;29;20111;-73
2022/01/25 01:49:27;;;;;;;16.30;8.93;;;;;;;;;;4914272;29;20024;-74
2022/01/25 01:51:52;;;;;;;15.73;8.48;;;;;;;;;;4915457;29;20493;-72
2022/01/25 01:54:18;;;;;;;19.23;8.55;;;;;;;;;;4915530;29;20036;-73
2022/01/25 01:56:43;;;;;;;15.32;8.15;;;;;;;;;;4915456;29;20023;-72
2022/01/25 01:59:11;;;;;;;13.63;8.02;;;;;;;;;;4915810;29;20032;-75
2022/01/25 02:01:37;;;;;;;16.42;8.88;;;;;;;;;;4915131;29;20028;-74
2022/01/25 02:04:04;;;;;;;15.77;7.85;;;;;;;;;;4915463;29;20059;-75
2022/01/25 02:06:29;;;;;;;15.43;8.77;;;;;;;;;;4915320;29;20040;-74
2022/01/25 02:08:57;;;;;;;13.45;7.85;;;;;;;;;;4910132;29;20036;-73
2022/01/25 02:11:23;;;;;;;13.10;7.65;;;;;;;;;;4898190;29;20028;-73
2022/01/25 02:13:49;;;;;;;14.93;7.85;;;;;;;;;;4915174;29;20055;-72
2022/01/25 02:17:05;;;;;;;17.90;7.40;;;;;;;;;;4904479;29;20028;-73
2022/01/25 02:24:33;;;;;;;14.30;7.68;;;;;;;;;;4915354;29;20091;-73
2022/01/25 02:26:59;;;;;;;12.98;7.45;;;;;;;;;;4915101;29;20024;-73
2022/01/25 02:29:24;;;;;;;17.15;7.32;;;;;;;;;;4915275;29;20017;-74
2022/01/25 02:31:51;;;;;;;13.20;7.75;;;;;;;;;;4918410;29;20016;-74
2022/01/25 02:34:17;;;;;;;12.57;7.53;;;;;;;;;;4901577;29;20056;-73
2022/01/25 02:36:42;;;;;;;14.75;7.78;;;;;;;;;;4918194;29;20056;-74
2022/01/25 02:39:07;;;;;;;16.20;7.63;;;;;;;;;;4918281;29;20020;-74
2022/01/25 02:41:33;;;;;;;14.68;7.82;;;;;;;;;;4918236;29;20039;-73
2022/01/25 02:43:58;;;;;;;15.65;7.82;;;;;;;;;;4918232;29;20068;-74
2022/01/25 02:48:55;;;;;;;14.05;7.75;;;;;;;;;;4921298;29;20032;-74
2022/01/25 02:51:22;;;;;;;14.55;8.23;;;;;;;;;;4924546;29;20028;-74
2022/01/25 02:53:47;;;;;;;15.73;8.70;;;;;;;;;;4923580;29;20020;-74
2022/01/25 02:56:14;;;;;;;17.27;7.22;;;;;;;;;;4908862;29;20441;-74
2022/01/25 02:58:40;;;;;;;13.57;7.40;;;;;;;;;;4918666;29;20099;-74
2022/01/25 03:01:05;;;;;;;10.82;6.80;;;;;;;;;;4916671;29;20148;-74
2022/01/25 03:03:30;;;;;;;14.73;6.97;;;;;;;;;;4917162;29;20446;-74
2022/01/25 03:05:55;;;;;;;13.77;7.60;;;;;;;;;;4917005;29;20110;-73
2022/01/25 03:08:20;;;;;;;15.88;7.97;;;;;;;;;;4918155;29;20020;-74
2022/01/25 03:10:47;;;;;;;12.80;7.82;;;;;;;;;;4906069;29;20396;-72
2022/01/25 03:13:20;;;;;;;15.05;8.65;;;;;;;;;;4914616;29;20035;-75
2022/01/25 03:18:35;;;;;;;12.90;7.43;;;;;;;;;;4917711;29;20111;-72
2022/01/25 03:21:33;;;;;;;15.98;8.68;;;;;;;;;;4917404;29;20061;-74
2022/01/25 03:23:46;;;;;;;17.65;8.68;;;;;;;;;;4904373;29;20490;-74
2022/01/25 03:26:12;;;;;;;13.93;7.65;;;;;;;;;;4917786;29;20473;-74
2022/01/25 03:28:37;;;;;;;14.10;7.55;;;;;;;;;;4917382;29;20035;-73
2022/01/25 03:31:02;;;;;;;18.88;8.90;;;;;;;;;;4917342;29;20026;-74
2022/01/25 03:33:27;;;;;;;15.75;8.30;;;;;;;;;;4915496;29;20028;-75
2022/01/25 03:35:53;;;;;;;17.67;9.30;;;;;;;;;;4904705;29;20024;-74
2022/01/25 03:38:18;;;;;;;17.08;8.07;;;;;;;;;;4917564;29;20256;-72
2022/01/25 03:40:45;;;;;;;14.27;8.38;;;;;;;;;;4916887;29;20024;-73
2022/01/25 03:43:11;;;;;;;15.77;7.65;;;;;;;;;;4916331;29;20020;-72
2022/01/25 03:45:39;;;;;;;15.98;7.68;;;;;;;;;;4917161;29;20031;-73
2022/01/25 03:50:39;;;;;;;13.63;8.00;;;;;;;;;;4917148;29;20508;-74
2022/01/25 03:53:12;;;;;;;13.57;8.07;;;;;;;;;;4916847;29;20161;-74
2022/01/25 03:55:37;;;;;;;14.60;7.55;;;;;;;;;;4923244;23;20083;-76
2022/01/25 03:58:03;;;;;;;12.18;7.32;;;;;;;;;;4898648;29;20069;-76
2022/01/25 04:00:29;;;;;;;15.85;7.22;;;;;;;;;;4897349;29;20029;-76
2022/01/25 04:03:00;;;;;;;12.57;7.65;;;;;;;;;;4893973;29;20029;-76
2022/01/25 04:05:36;;;;;;;15.63;7.78;;;;;;;;;;4870583;29;20036;-78
2022/01/25 04:08:03;;;;;;;14.15;8.30;;;;;;;;;;4859932;29;20026;-77
2022/01/25 04:10:28;;;;;;;13.07;7.70;;;;;;;;;;4872517;29;20032;-76
2022/01/25 04:12:53;;;;;;;15.60;7.78;;;;;;;;;;4878118;29;20490;-77
2022/01/25 04:15:19;;;;;;;15.80;8.32;;;;;;;;;;4878170;29;20025;-78
2022/01/25 04:17:49;;;;;;;13.45;7.85;;;;;;;;;;4878315;29;20105;-76
2022/01/25 04:20:25;;;;;;;16.30;8.60;;;;;;;;;;4875319;29;20522;-75
2022/01/25 04:25:34;;;;;;;15.55;7.47;;;;;;;;;;4865863;29;20135;-75
2022/01/25 04:28:00;;;;;;;14.60;8.07;;;;;;;;;;4878328;29;20046;-75
2022/01/25 04:30:25;;;;;;;18.88;8.95;;;;;;;;;;4878676;29;20065;-76
2022/01/25 04:33:01;;;;;;;17.95;8.07;;;;;;;;;;4878236;29;20056;-76
2022/01/25 04:35:42;;;;;;;16.80;8.30;;;;;;;;;;4878175;29;20028;-77
2022/01/25 04:51:47;;;;;;;15.50;7.78;;;;;;;;;;4879212;29;20025;-76
2022/01/25 04:56:49;;;;;;;22.33;8.18;;;;;;;;;;4878622;29;20482;-77
2022/01/25 05:01:43;;;;;;;14.10;7.10;;;;;;;;;;4879300;29;20033;-76
2022/01/25 05:04:13;;;;;;;14.38;8.18;;;;;;;;;;4887366;29;20055;-76
2022/01/25 05:06:44;;;;;;;16.42;7.80;;;;;;;;;;4878684;29;20032;-76
2022/01/25 05:09:12;;;;;;;13.85;8.75;;;;;;;;;;4877372;29;20472;-78
2022/01/25 05:11:42;;;;;;;13.47;8.17;;;;;;;;;;4891399;29;20490;-76
2022/01/25 05:19:20;;;;;;;17.67;8.10;;;;;;;;;;4880904;29;20032;-77
2022/01/25 05:24:30;;;;;;;18.67;8.50;;;;;;;;;;4880384;29;20077;-76
2022/01/25 05:26:55;;;;;;;15.55;8.07;;;;;;;;;;4882823;29;20119;-76
2022/01/25 05:29:21;;;;;;;14.85;7.70;;;;;;;;;;4882368;29;20013;-75
2022/01/25 05:31:46;;;;;;;15.00;8.20;;;;;;;;;;4881509;29;20025;-75
2022/01/25 05:34:11;;;;;;;15.80;8.10;;;;;;;;;;4884600;29;20037;-76
2022/01/25 05:36:37;;;;;;;14.98;8.50;;;;;;;;;;4884296;29;20060;-76
2022/01/25 05:39:09;;;;;;;18.27;8.40;;;;;;;;;;4884110;29;20017;-76
2022/01/25 05:41:35;;;;;;;13.48;6.82;;;;;;;;;;4881430;29;20028;-75
2022/01/25 05:46:45;;;;;;;14.70;8.02;;;;;;;;;;4882372;29;20032;-74
2022/01/25 05:49:11;;;;;;;16.73;7.38;;;;;;;;;;4883161;29;20064;-75
2022/01/25 05:51:36;;;;;;;13.35;7.40;;;;;;;;;;4898838;29;20021;-75
2022/01/25 05:54:01;;;;;;;16.48;8.57;;;;;;;;;;4893079;29;20391;-75
2022/01/25 05:56:27;;;;;;;13.20;7.15;;;;;;;;;;4881445;29;20056;-75
2022/01/25 05:58:52;;;;;;;15.85;7.90;;;;;;;;;;4878105;29;20017;-75
2022/01/25 06:01:20;;;;;;;13.85;7.35;;;;;;;;;;4878118;29;20021;-76
2022/01/25 06:03:45;;;;;;;19.08;7.30;;;;;;;;;;4877577;29;20108;-76
2022/01/25 06:06:11;;;;;;;15.88;8.13;;;;;;;;;;4881199;29;20113;-76
2022/01/25 06:08:37;;;;;;;15.15;7.90;;;;;;;;;;4882250;29;20390;-76
2022/01/25 06:11:02;;;;;;;18.45;8.43;;;;;;;;;;4880571;29;20406;-76
2022/01/25 06:13:27;;;;;;;16.02;8.18;;;;;;;;;;4881550;29;20023;-76
2022/01/25 06:15:52;;;;;;;18.35;7.88;;;;;;;;;;4881562;29;20120;-76
2022/01/25 06:18:17;;;;;;;16.05;7.78;;;;;;;;;;4881678;29;20068;-75
2022/01/25 06:20:42;;;;;;;16.67;9.02;;;;;;;;;;4881878;29;20072;-76
2022/01/25 06:23:08;;;;;;;15.50;8.52;;;;;;;;;;4882017;29;20506;-75
2022/01/25 06:25:34;;;;;;;13.27;7.47;;;;;;;;;;4882499;29;20024;-76
2022/01/25 06:27:59;;;;;;;13.50;7.40;;;;;;;;;;4881564;29;20027;-76
2022/01/25 06:30:25;;;;;;;19.98;9.18;;;;;;;;;;4881901;29;20033;-75
2022/01/25 06:32:50;;;;;;;19.23;8.18;;;;;;;;;;4882063;29;20108;-75
2022/01/25 06:35:16;;;;;;;15.35;8.73;;;;;;;;;;4882070;29;20056;-76
2022/01/25 06:37:42;;;;;;;17.50;8.85;;;;;;;;;;4883808;29;20044;-75
2022/01/25 06:40:07;;;;;;;19.67;9.02;;;;;;;;;;4884086;29;20115;-76
2022/01/25 06:42:35;;;;;;;19.65;9.70;;;;;;;;;;4883823;29;20486;-75
2022/01/25 06:45:03;;;;;;;18.17;8.02;;;;;;;;;;4882501;29;20025;-76
2022/01/25 06:47:29;;;;;;;15.75;8.52;;;;;;;;;;4883032;29;20024;-75
2022/01/25 06:49:54;;;;;;;16.70;8.00;;;;;;;;;;4883264;29;20033;-76
2022/01/25 06:52:19;;;;;;;19.25;9.30;;;;;;;;;;4885296;29;20021;-75
2022/01/25 06:54:44;;;;;;;19.42;8.68;;;;;;;;;;4883041;29;20418;-75
2022/01/25 06:57:10;;;;;;;21.83;9.40;;;;;;;;;;4885061;29;20029;-74
2022/01/25 06:59:35;;;;;;;17.42;9.75;;;;;;;;;;4883142;29;20045;-75
2022/01/25 07:02:01;;;;;;;19.13;9.40;;;;;;;;;;4883681;29;20017;-76
2022/01/25 07:04:26;;;;;;;19.83;10.15;;;;;;;;;;4881813;29;20021;-75
2022/01/25 07:06:51;;;;;;;19.38;9.73;;;;;;;;;;4881900;29;20080;-76
2022/01/25 07:09:16;;;;;;;17.40;9.45;;;;;;;;;;4882434;29;20013;-76
2022/01/25 07:11:41;;;;;;;18.75;9.82;;;;;;;;;;4882323;29;20394;-76
2022/01/25 07:14:07;;;;;;;20.92;10.23;;;;;;;;;;4881549;29;20398;-75
2022/01/25 07:16:32;;;;;;;19.83;8.65;;;;;;;;;;4882353;29;20483;-76
2022/01/25 07:18:57;;;;;;;18.83;9.25;;;;;;;;;;4880639;29;20025;-76
2022/01/25 07:21:26;;;;;;;19.73;8.88;;;;;;;;;;4883373;29;20025;-78
2022/01/25 07:23:51;;;;;;;19.90;10.57;;;;;;;;;;4893218;29;20475;-77
2022/01/25 07:26:16;;;;;;;21.00;9.43;;;;;;;;;;4881909;29;20037;-76
2022/01/25 07:28:41;;;;;;;18.35;9.18;;;;;;;;;;4882806;29;20097;-76
2022/01/25 07:31:06;;;;;;;22.08;10.30;;;;;;;;;;4884834;29;20542;-77
2022/01/25 07:33:32;;;;;;;18.80;9.35;;;;;;;;;;4885868;29;20029;-76
2022/01/25 07:35:57;;;;;;;21.45;10.70;;;;;;;;;;4886143;29;20096;-75
2022/01/25 07:38:23;;;;;;;21.00;9.85;;;;;;;;;;4880694;29;20390;-76
2022/01/25 07:40:48;;;;;;;17.55;8.75;;;;;;;;;;4883680;29;20021;-77
2022/01/25 07:43:13;;;;;;;22.17;9.48;;;;;;;;;;4884903;29;20013;-77
2022/01/25 07:45:39;;;;;;;19.52;9.02;;;;;;;;;;4888351;29;20368;-76
2022/01/25 07:48:08;;;;;;;20.88;9.35;;;;;;;;;;4894072;29;20066;-75
2022/01/25 07:50:34;;;;;;;19.98;10.07;;;;;;;;;;4896546;29;20025;-76
2022/01/25 07:52:59;;;;;;;20.63;9.60;;;;;;;;;;4897409;29;20173;-76
2022/01/25 07:55:28;;;;;;;20.20;10.02;;;;;;;;;;4896364;29;20081;-76
2022/01/25 07:57:53;;;;;;;20.83;9.30;;;;;;;;;;4896924;29;20025;-76
2022/01/25 08:00:19;;;;;;;20.73;9.32;;;;;;;;;;4898352;29;20056;-76
2022/01/25 08:02:45;;;;;;;19.65;9.15;;;;;;;;;;4896882;29;20028;-75
2022/01/25 08:05:14;;;;;;;21.10;10.10;;;;;;;;;;4895201;29;20033;-77
2022/01/25 08:07:40;;;;;;;21.05;10.15;;;;;;;;;;4894685;29;20025;-74
2022/01/25 08:10:09;;;;;;;20.92;10.27;;;;;;;;;;4906542;29;20028;-76
2022/01/25 08:12:40;;;;;;;19.52;9.57;;;;;;;;;;4898104;29;20090;-77
2022/01/25 08:15:07;;;;;;;19.05;9.90;;;;;;;;;;4896601;29;20066;-77
2022/01/25 08:17:32;;;;;;;21.40;9.48;;;;;;;;;;4896596;29;20033;-76
2022/01/25 08:19:58;;;;;;;18.77;9.93;;;;;;;;;;4906060;29;20647;-76
2022/01/25 08:22:24;;;;;;;20.73;10.18;;;;;;;;;;4898205;29;20029;-75
2022/01/25 08:24:50;;;;;;;22.90;9.80;;;;;;;;;;4898098;29;20032;-76
2022/01/25 08:27:18;;;;;;;22.10;8.65;;;;;;;;;;4897538;29;20029;-76
2022/01/25 08:29:50;;;;;;;22.05;10.40;;;;;;;;;;4897655;29;20025;-75
2022/01/25 08:32:15;;;;;;;20.20;9.40;;;;;;;;;;4897800;29;20066;-74
2022/01/25 08:34:40;;;;;;;17.80;9.45;;;;;;;;;;4898260;29;20064;-75
2022/01/25 08:37:06;;;;;;;19.63;9.23;;;;;;;;;;4898718;29;20025;-75
2022/01/25 08:39:34;;;;;;;19.17;9.88;;;;;;;;;;4899434;29;20013;-76
2022/01/25 08:41:59;;;;;;;18.88;9.38;;;;;;;;;;4898544;29;20073;-76
2022/01/25 08:44:25;;;;;;;18.60;9.50;;;;;;;;;;4898778;29;20427;-75
2022/01/25 08:46:53;;;;;;;18.90;10.30;;;;;;;;;;4896609;29;20033;-76
2022/01/25 08:49:21;;;;;;;22.95;10.75;;;;;;;;;;4879334;29;20124;-75
2022/01/25 08:51:49;;;;;;;20.48;11.13;;;;;;;;;;4898636;29;20029;-75
2022/01/25 08:54:15;;;;;;;19.10;9.07;;;;;;;;;;4896301;29;20025;-76
2022/01/25 08:56:41;;;;;;;18.35;10.10;;;;;;;;;;4891950;29;20384;-76
2022/01/25 08:59:06;;;;;;;20.90;11.60;;;;;;;;;;4894332;29;20112;-76
2022/01/25 09:01:32;;;;;;;18.85;10.85;;;;;;;;;;4897017;29;20021;-75
2022/01/25 09:03:57;;;;;;;19.95;11.02;;;;;;;;;;4896327;29;20040;-75
2022/01/25 09:06:31;;;;;;;20.50;10.65;;;;;;;;;;4895302;29;20025;-74
2022/01/25 09:09:02;;;;;;;19.60;11.00;;;;;;;;;;4891665;29;20021;-76
2022/01/25 09:11:27;;;;;;;21.08;10.82;;;;;;;;;;4880707;29;20016;-76
2022/01/25 09:13:52;;;;;;;21.80;10.80;;;;;;;;;;4882780;29;20483;-76
2022/01/25 09:16:18;;;;;;;21.40;11.73;;;;;;;;;;4886594;29;20029;-76
2022/01/25 09:18:43;;;;;;;22.52;11.95;;;;;;;;;;4883534;29;20021;-76
2022/01/25 09:21:09;;;;;;;22.92;12.23;;;;;;;;;;4884956;29;20092;-75
2022/01/25 09:23:34;;;;;;;24.70;12.55;;;;;;;;;;4884257;29;20569;-75
2022/01/25 09:25:59;;;;;;;28.70;12.02;;;;;;;;;;4884614;29;20467;-77
2022/01/25 09:28:25;;;;;;;23.27;11.98;;;;;;;;;;4892062;29;20368;-76
2022/01/25 09:30:50;;;;;;;24.88;12.98;;;;;;;;;;4883604;29;20025;-74
2022/01/25 09:33:15;;;;;;;24.08;12.95;;;;;;;;;;4884152;29;20028;-76
2022/01/25 09:35:41;;;;;;;26.90;12.82;;;;;;;;;;4885159;29;20538;-76
2022/01/25 09:38:09;;;;;;;26.20;13.35;;;;;;;;;;4883335;29;20382;-76
2022/01/25 09:40:35;;;;;;;;;;;;;;;;;;4883521;29;20036;-75
2022/01/25 09:43:00;;;;;;;31.60;13.82;;;;;;;;;;4885359;29;19907;-75
2022/01/25 09:45:29;;;;;;;25.80;13.88;;;;;;;;;;4883707;29;20765;-76
2022/01/25 09:47:54;;;;;;;28.95;13.90;;;;;;;;;;4883361;29;20027;-76
2022/01/25 09:50:20;;;;;;;25.88;13.55;;;;;;;;;;4883211;29;20108;-75
2022/01/25 09:52:48;;;;;;;28.92;14.10;;;;;;;;;;4883601;29;20021;-77
2022/01/25 09:55:15;;;;;;;26.70;13.52;;;;;;;;;;4884478;29;20028;-76
2022/01/25 09:57:41;;;;;;;32.00;13.88;;;;;;;;;;4883864;29;20081;-76
2022/01/25 10:00:07;;;;;;;26.83;14.57;;;;;;;;;;4883497;29;20037;-76
2022/01/25 10:02:37;;;;;;;27.50;15.25;;;;;;;;;;4884827;29;20032;-75
2022/01/25 10:05:16;;;;;;;30.35;15.30;;;;;;;;;;4883458;29;20028;-76
2022/01/25 10:07:41;;;;;;;31.42;16.13;;;;;;;;;;4881209;29;20024;-76
2022/01/25 10:10:07;;;;;;;31.25;16.52;;;;;;;;;;4881398;29;20105;-76
2022/01/25 10:12:32;;;;;;;32.53;16.05;;;;;;;;;;4881868;29;20211;-75
2022/01/25 10:15:00;;;;;;;31.17;16.27;;;;;;;;;;4881668;29;20056;-76
2022/01/25 10:17:32;;;;;;;35.70;17.13;;;;;;;;;;4880643;29;20021;-76
2022/01/25 10:19:57;;;;;;;30.98;16.70;;;;;;;;;;4893210;29;20315;-76
2022/01/25 10:22:23;;;;;;;33.00;16.08;;;;;;;;;;4885317;29;20495;-76
2022/01/25 10:24:48;;;;;;;35.67;15.75;;;;;;;;;;4880408;29;20021;-76
2022/01/25 10:27:13;;;;;;;33.95;18.42;;;;;;;;;;4883010;29;20013;-75
2022/01/25 10:29:41;;;;;;;37.10;17.40;;;;;;;;;;4884748;29;20367;-77
2022/01/25 10:32:09;;;;;;;37.33;19.60;;;;;;;;;;4886529;29;20014;-77
2022/01/25 10:34:45;;;;;;;35.78;17.05;;;;;;;;;;4884205;29;20024;-76
2022/01/25 10:37:11;;;;;;;33.80;17.08;;;;;;;;;;4882292;29;20017;-76
2022/01/25 10:42:28;;;;;;;37.33;17.27;;;;;;;;;;4898020;29;20058;-77
2022/01/25 10:44:55;;;;;;;41.25;19.17;;;;;;;;;;4895174;29;20025;-76
2022/01/25 10:47:38;;;;;;;39.22;18.80;;;;;;;;;;4897673;29;20025;-76
2022/01/25 10:50:14;;;;;;;42.90;17.25;;;;;;;;;;4900028;29;20005;-75
2022/01/25 10:52:41;;;;;;;37.10;17.95;;;;;;;;;;4896409;29;20025;-76
2022/01/25 10:55:07;;;;;;;39.05;18.58;;;;;;;;;;4898335;29;20025;-77
2022/01/25 10:57:32;;;;;;;37.20;17.73;;;;;;;;;;4903339;29;20077;-76
2022/01/25 11:00:01;;;;;;;34.20;16.92;;;;;;;;;;4905367;29;20036;-75
2022/01/25 11:05:06;;;;;;;33.58;17.63;;;;;;;;;;5100313;23;20112;-75
2022/01/25 11:07:40;;;;;;;35.67;16.95;;;;;;;;;;4942423;29;20027;-75
2022/01/25 11:12:48;;;;;;;37.78;17.85;;;;;;;;;;5329207;23;20106;-76
2022/01/25 11:15:13;;;;;;;37.25;16.58;;;;;;;;;;4927700;29;20028;-75
2022/01/25 11:17:40;;;;;;;37.58;17.85;;;;;;;;;;4934445;29;20052;-77
2022/01/25 11:20:07;;;;;;;38.05;17.70;;;;;;;;;;4922445;29;20024;-77
2022/01/25 11:22:33;;;;;;;36.22;16.13;;;;;;;;;;4921035;29;20005;-76
2022/01/25 11:25:02;;;;;;;36.53;18.02;;;;;;;;;;4930397;29;20020;-77
2022/01/25 11:27:33;;;;;;;38.92;18.83;;;;;;;;;;4930526;29;20008;-76
2022/01/25 11:30:09;;;;;;;45.58;17.98;;;;;;;;;;4925024;29;20020;-77
2022/01/25 11:32:40;;;;;;;40.15;17.13;;;;;;;;;;4925090;29;20012;-76
2022/01/25 11:35:08;;;;;;;38.45;18.00;;;;;;;;;;4914762;29;20019;-77
2022/01/25 11:37:38;;;;;;;41.45;17.88;;;;;;;;;;4918784;29;20027;-75
2022/01/25 11:40:26;;;;;;;35.30;15.85;;;;;;;;;;4949221;23;20051;-77
2022/01/25 11:42:52;;;;;;;37.35;17.08;;;;;;;;;;4923565;29;20030;-76
2022/01/25 11:45:27;;;;;;;35.55;16.25;;;;;;;;;;4917307;29;20000;-76
2022/01/25 11:47:54;;;;;;;42.60;17.17;;;;;;;;;;4941356;29;20047;-76
2022/01/25 11:50:19;;;;;;;37.28;15.35;;;;;;;;;;4936980;29;20017;-76
2022/01/25 11:52:49;;;;;;;39.47;15.88;;;;;;;;;;4936129;29;20020;-76
2022/01/25 11:55:19;;;;;;;35.45;16.23;;;;;;;;;;4923046;29;20032;-77
2022/01/25 11:57:46;;;;;;;38.25;16.98;;;;;;;;;;4935204;29;20016;-76
2022/01/25 12:00:12;;;;;;;36.63;16.10;;;;;;;;;;4923721;29;20028;-76
2022/01/25 12:02:39;;;;;;;41.83;17.05;;;;;;;;;;4931062;29;20031;-76
2022/01/25 12:05:05;;;;;;;31.73;14.98;;;;;;;;;;4911228;29;20030;-76
2022/01/25 12:07:38;;;;;;;37.25;15.73;;;;;;;;;;4938285;29;20004;-76
2022/01/25 12:10:13;;;;;;;37.85;16.35;;;;;;;;;;4920033;29;20071;-76
2022/01/25 12:12:40;;;;;;;37.53;15.60;;;;;;;;;;4921984;29;20036;-75
2022/01/25 12:15:12;;;;;;;35.63;13.98;;;;;;;;;;4933754;29;20028;-76
2022/01/25 12:17:37;;;;;;;39.95;16.00;;;;;;;;;;4935359;29;20024;-76
2022/01/25 12:20:06;;;;;;;39.35;15.27;;;;;;;;;;4934792;29;20148;-76
2022/01/25 12:22:39;;;;;;;;;;;;;;;;;;4937364;29;20035;-75
2022/01/25 12:25:21;;;;;;;43.20;15.32;;;;;;;;;;4937739;29;19907;-76
2022/01/25 12:27:53;;;;;;;42.70;15.48;;;;;;;;;;4922603;29;20039;-76
2022/01/25 12:30:25;;;;;;;36.70;16.30;;;;;;;;;;4916065;29;20055;-76
2022/01/25 12:33:01;;;;;;;43.08;17.45;;;;;;;;;;5068343;23;20438;-76
2022/01/25 12:35:40;;;;;;;35.83;15.48;;;;;;;;;;4929329;29;20020;-77
2022/01/25 12:38:25;;;;;;;41.53;16.75;;;;;;;;;;4928693;29;20051;-75
2022/01/25 12:41:10;;;;;;;34.25;15.85;;;;;;;;;;4914651;29;20039;-77
2022/01/25 12:43:39;;;;;;;41.92;15.68;;;;;;;;;;4934576;29;20018;-77
2022/01/25 12:46:12;;;;;;;43.95;15.70;;;;;;;;;;4920133;29;20030;-76
2022/01/25 12:48:42;;;;;;;37.08;16.35;;;;;;;;;;4916194;29;20023;-76
2022/01/25 12:51:21;;;;;;;33.67;16.15;;;;;;;;;;4918921;29;20025;-77
2022/01/25 12:53:48;;;;;;;43.60;16.27;;;;;;;;;;4909218;29;20016;-76
2022/01/25 12:56:16;;;;;;;42.03;15.93;;;;;;;;;;4918608;29;20064;-76
2022/01/25 12:58:42;;;;;;;37.22;16.45;;;;;;;;;;4919100;29;20048;-75
2022/01/25 13:01:09;;;;;;;40.65;16.27;;;;;;;;;;4918501;29;20024;-76
2022/01/25 13:03:35;;;;;;;39.25;15.80;;;;;;;;;;4918534;29;20016;-76
2022/01/25 13:06:06;;;;;;;38.90;16.33;;;;;;;;;;4917856;29;20067;-75
2022/01/25 13:08:33;;;;;;;47.70;16.38;;;;;;;;;;4921355;29;20024;-76
2022/01/25 13:11:19;;;;;;;35.22;15.77;;;;;;;;;;4922827;29;20031;-76
2022/01/25 13:14:34;;;;;;;44.17;16.75;;;;;;;;;;4931802;29;20004;-75
2022/01/25 13:16:40;;;;;;;40.15;16.20;;;;;;;;;;4920814;29;20416;-76
2022/01/25 13:19:06;;;;;;;45.20;15.85;;;;;;;;;;4935261;29;20017;-76
2022/01/25 13:21:52;;;;;;;40.63;15.63;;;;;;;;;;4938442;29;20011;-76
2022/01/25 13:24:19;;;;;;;47.28;15.95;;;;;;;;;;4938181;29;20012;-76
2022/01/25 13:26:49;;;;;;;35.78;15.43;;;;;;;;;;4918479;29;20005;-75
2022/01/25 13:32:12;;;;;;;40.72;15.88;;;;;;;;;;4934642;29;20031;-76
2022/01/25 13:34:38;;;;;;;42.60;16.27;;;;;;;;;;4917876;29;20020;-76
2022/01/25 13:37:07;;;;;;;41.30;15.45;;;;;;;;;;4937523;29;20019;-77
2022/01/25 13:39:35;;;;;;;35.25;14.57;;;;;;;;;;4917771;29;20052;-75
2022/01/25 13:42:02;;;;;;;37.80;14.63;;;;;;;;;;4934329;29;20020;-75
2022/01/25 13:47:15;;;;;;;36.58;14.98;;;;;;;;;;4937158;29;20044;-76
2022/01/25 13:49:42;;;;;;;37.47;14.75;;;;;;;;;;4918343;29;20020;-76
2022/01/25 13:52:07;;;;;;;39.22;16.40;;;;;;;;;;4907996;29;20055;-76
2022/01/25 13:54:33;;;;;;;37.35;15.55;;;;;;;;;;4923421;29;20020;-76
2022/01/25 13:57:08;;;;;;;41.58;15.35;;;;;;;;;;4920025;29;20479;-76
2022/01/25 13:59:40;;;;;;;38.50;14.80;;;;;;;;;;4917325;29;20066;-76
2022/01/25 14:02:06;;;;;;;36.75;13.93;;;;;;;;;;4921337;29;20095;-77
2022/01/25 14:04:38;;;;;;;37.13;15.30;;;;;;;;;;4996119;23;20028;-76
2022/01/25 14:07:06;;;;;;;36.13;14.43;;;;;;;;;;4935740;29;20009;-75
2022/01/25 14:09:39;;;;;;;39.90;14.88;;;;;;;;;;4917988;29;20052;-75
2022/01/25 14:23:22;;;;;;;41.22;15.48;;;;;;;;;;4918036;29;20027;-76
2022/01/25 14:25:48;;;;;;;42.92;15.85;;;;;;;;;;4901641;29;20485;-77
2022/01/25 14:28:27;;;;;;;42.40;16.67;;;;;;;;;;4922830;29;20024;-76
2022/01/25 14:30:57;;;;;;;40.85;15.73;;;;;;;;;;4921361;29;20056;-76
2022/01/25 14:33:24;;;;;;;44.38;16.40;;;;;;;;;;4920098;29;20032;-76
2022/01/25 14:36:04;;;;;;;42.92;16.63;;;;;;;;;;4920707;29;20087;-76
2022/01/25 14:38:37;;;;;;;39.15;15.70;;;;;;;;;;4920129;29;20028;-75
2022/01/25 14:41:10;;;;;;;45.17;15.90;;;;;;;;;;4932084;29;20030;-77
2022/01/25 14:43:56;;;;;;;39.47;15.32;;;;;;;;;;4924173;29;20040;-76
2022/01/25 14:49:06;;;;;;;39.05;15.73;;;;;;;;;;5062860;23;20501;-77
2022/01/25 14:51:36;;;;;;;41.40;16.58;;;;;;;;;;4939180;29;20030;-74
2022/01/25 14:54:02;;;;;;;40.38;15.98;;;;;;;;;;4937174;29;20035;-76
2022/01/25 14:56:31;;;;;;;41.78;16.80;;;;;;;;;;4923787;29;20032;-76
2022/01/25 15:01:30;;;;;;;41.75;16.42;;;;;;;;;;4920405;29;20031;-76
2022/01/25 15:03:57;;;;;;;46.53;16.85;;;;;;;;;;4944338;23;20047;-76
2022/01/25 15:06:22;;;;;;;46.15;16.20;;;;;;;;;;4909609;29;20095;-76
2022/01/25 15:08:52;;;;;;;40.70;16.10;;;;;;;;;;4905277;29;20485;-77
2022/01/25 15:11:18;;;;;;;46.35;16.90;;;;;;;;;;4926862;29;20032;-77
2022/01/25 15:13:43;;;;;;;39.38;16.17;;;;;;;;;;4923075;29;20028;-75
2022/01/25 15:16:09;;;;;;;39.38;16.55;;;;;;;;;;4923249;29;20151;-77
2022/01/25 15:18:36;;;;;;;42.97;16.38;;;;;;;;;;4924380;29;20020;-77
2022/01/25 15:21:05;;;;;;;38.92;16.67;;;;;;;;;;4909205;29;20031;-77
2022/01/25 15:23:33;;;;;;;42.53;15.77;;;;;;;;;;4906919;29;20462;-75
2022/01/25 15:26:00;;;;;;;37.70;15.55;;;;;;;;;;4920113;29;20503;-76
2022/01/25 15:28:42;;;;;;;44.35;17.80;;;;;;;;;;4925000;29;20047;-76
2022/01/25 15:31:09;;;;;;;39.65;16.10;;;;;;;;;;4926858;29;20020;-76
2022/01/25 15:33:34;;;;;;;43.35;16.00;;;;;;;;;;4924804;29;20057;-75
2022/01/25 15:36:00;;;;;;;41.78;16.70;;;;;;;;;;4923183;29;20032;-76
2022/01/25 15:38:25;;;;;;;44.35;17.08;;;;;;;;;;4922547;29;20092;-76
2022/01/25 15:40:50;;;;;;;48.10;17.70;;;;;;;;;;4907448;29;20506;-74
2022/01/25 15:43:22;;;;;;;40.55;15.57;;;;;;;;;;4936023;29;20004;-76
2022/01/25 15:46:03;;;;;;;43.22;16.20;;;;;;;;;;4939848;29;20073;-76
2022/01/25 15:48:28;;;;;;;44.30;16.50;;;;;;;;;;4940307;29;20023;-76
2022/01/25 15:50:54;;;;;;;45.63;15.80;;;;;;;;;;4929130;29;20028;-76
2022/01/25 15:53:19;;;;;;;45.53;17.13;;;;;;;;;;4932066;29;20008;-76
2022/01/25 15:55:44;;;;;;;41.88;16.70;;;;;;;;;;4923691;29;20017;-76
2022/01/25 15:58:10;;;;;;;44.55;17.58;;;;;;;;;;5037049;23;20047;-74
2022/01/25 16:00:36;;;;;;;39.83;16.60;;;;;;;;;;4940787;29;20132;-75
2022/01/25 16:03:02;;;;;;;43.03;16.90;;;;;;;;;;4938277;29;20110;-75
2022/01/25 16:05:27;;;;;;;42.67;16.55;;;;;;;;;;4920522;29;20058;-76
2022/01/25 16:07:53;;;;;;;47.17;17.58;;;;;;;;;;4933687;29;20585;-76
2022/01/25 16:10:19;;;;;;;45.35;18.40;;;;;;;;;;4901679;29;20027;-75
2022/01/25 16:12:45;;;;;;;52.75;18.58;;;;;;;;;;4917205;29;20474;-75
2022/01/25 16:15:10;;;;;;;45.85;17.75;;;;;;;;;;4917492;29;20024;-75
2022/01/25 16:17:35;;;;;;;47.55;19.60;;;;;;;;;;4917600;29;20035;-75
2022/01/25 16:20:00;;;;;;;53.78;19.30;;;;;;;;;;4917639;29;20096;-75
2022/01/25 16:22:26;;;;;;;45.28;18.65;;;;;;;;;;4919190;29;20092;-74
2022/01/25 16:24:51;;;;;;;49.83;18.30;;;;;;;;;;4900209;29;20028;-75
2022/01/25 16:27:16;;;;;;;46.45;18.80;;;;;;;;;;4917433;29;20426;-74
2022/01/25 16:29:41;;;;;;;52.60;20.83;;;;;;;;;;4900593;29;20051;-72
2022/01/25 16:32:07;;;;;;;52.80;20.23;;;;;;;;;;4919667;29;20048;-75
2022/01/25 16:34:32;;;;;;;49.55;19.95;;;;;;;;;;4900057;29;20111;-73